sensor_id;sensor_type;location;lat;lon;timestamp;P1;durP1;ratioP1;P2;durP2;ratioP2
6667;SDS011;3370;47.712;9.082;2022-07-06T00:01:51;3.73;;;2.40;;
6667;SDS011;3370;47.712;9.082;2022-07-06T00:04:20;2.40;;;2.20;;
6667;SDS011;3370;47.712;9.082;2022-07-06T00:06:46;2.43;;;2.20;;
6667;SDS011;3370;47.712;9.082;2022-07-06T00:09:12;5.50;;;2.10;;
6667;SDS011;3370;47.712;9.082;2022-07-06T00:11:38;3.57;;;2.50;;
6667;SDS011;3370;47.712;9.082;2022-07-06T00:14:04;7.63;;;2.40;;
6667;SDS011;3370;47.712;9.082;2022-07-06T00:16:30;2.00;;;1.90;;
6667;SDS011;3370;47.712;9.082;2022-07-06T00:18:56;2.10;;;2.00;;
6667;SDS011;3370;47.712;9.082;2022-07-06T00:21:22;2.30;;;2.10;;
6667;SDS011;3370;47.712;9.082;2022-07-06T00:23:49;2.30;;;1.70;;
6667;SDS011;3370;47.712;9.082;2022-07-06T00:26:16;2.47;;;2.27;;
6667;SDS011;3370;47.712;9.082;2022-07-06T00:28:43;8.10;;;2.10;;
6667;SDS011;3370;47.712;9.082;2022-07-06T00:31:09;3.53;;;2.27;;
6667;SDS011;3370;47.712;9.082;2022-07-06T00:33:36;8.83;;;2.10;;
6667;SDS011;3370;47.712;9.082;2022-07-06T00:36:02;8.57;;;2.33;;
6667;SDS011;3370;47.712;9.082;2022-07-06T00:38:28;8.10;;;2.40;;
6667;SDS011;3370;47.712;9.082;2022-07-06T00:40:54;2.30;;;2.10;;
6667;SDS011;3370;47.712;9.082;2022-07-06T00:43:20;4.43;;;2.20;;
6667;SDS011;3370;47.712;9.082;2022-07-06T00:45:46;2.40;;;2.07;;
6667;SDS011;3370;47.712;9.082;2022-07-06T00:48:12;3.90;;;2.70;;
6667;SDS011;3370;47.712;9.082;2022-07-06T00:50:38;2.00;;;1.90;;
6667;SDS011;3370;47.712;9.082;2022-07-06T00:53:05;2.10;;;2.00;;
6667;SDS011;3370;47.712;9.082;2022-07-06T00:55:34;5.03;;;2.00;;
6667;SDS011;3370;47.712;9.082;2022-07-06T00:58:04;2.97;;;2.30;;
6667;SDS011;3370;47.712;9.082;2022-07-06T01:00:31;2.20;;;1.90;;
6667;SDS011;3370;47.712;9.082;2022-07-06T01:02:58;1.90;;;1.80;;
6667;SDS011;3370;47.712;9.082;2022-07-06T01:05:24;2.60;;;2.50;;
6667;SDS011;3370;47.712;9.082;2022-07-06T01:07:52;2.30;;;2.10;;
6667;SDS011;3370;47.712;9.082;2022-07-06T01:10:19;6.83;;;2.53;;
6667;SDS011;3370;47.712;9.082;2022-07-06T01:12:47;2.00;;;1.90;;
6667;SDS011;3370;47.712;9.082;2022-07-06T01:15:15;2.97;;;2.07;;
6667;SDS011;3370;47.712;9.082;2022-07-06T01:17:50;2.10;;;2.00;;
6667;SDS011;3370;47.712;9.082;2022-07-06T01:20:21;5.80;;;2.17;;
6667;SDS011;3370;47.712;9.082;2022-07-06T01:22:49;2.13;;;2.03;;
6667;SDS011;3370;47.712;9.082;2022-07-06T01:25:16;2.50;;;2.30;;
6667;SDS011;3370;47.712;9.082;2022-07-06T01:27:44;12.03;;;2.20;;
6667;SDS011;3370;47.712;9.082;2022-07-06T01:30:12;4.07;;;2.33;;
6667;SDS011;3370;47.712;9.082;2022-07-06T01:32:42;2.60;;;2.30;;
6667;SDS011;3370;47.712;9.082;2022-07-06T01:35:10;2.37;;;1.90;;
6667;SDS011;3370;47.712;9.082;2022-07-06T01:37:38;2.70;;;2.50;;
6667;SDS011;3370;47.712;9.082;2022-07-06T01:40:06;3.70;;;1.90;;
6667;SDS011;3370;47.712;9.082;2022-07-06T01:42:35;4.60;;;2.30;;
6667;SDS011;3370;47.712;9.082;2022-07-06T01:45:01;3.00;;;2.13;;
6667;SDS011;3370;47.712;9.082;2022-07-06T01:47:30;5.90;;;2.27;;
6667;SDS011;3370;47.712;9.082;2022-07-06T01:49:58;6.10;;;2.40;;
6667;SDS011;3370;47.712;9.082;2022-07-06T01:52:26;2.20;;;2.00;;
6667;SDS011;3370;47.712;9.082;2022-07-06T01:54:52;6.40;;;2.40;;
6667;SDS011;3370;47.712;9.082;2022-07-06T01:57:19;2.87;;;2.20;;
6667;SDS011;3370;47.712;9.082;2022-07-06T01:59:45;4.40;;;2.37;;
6667;SDS011;3370;47.712;9.082;2022-07-06T02:02:10;8.43;;;2.33;;
6667;SDS011;3370;47.712;9.082;2022-07-06T02:04:36;2.10;;;2.00;;
6667;SDS011;3370;47.712;9.082;2022-07-06T02:07:02;2.20;;;2.00;;
6667;SDS011;3370;47.712;9.082;2022-07-06T02:09:28;3.83;;;2.00;;
6667;SDS011;3370;47.712;9.082;2022-07-06T02:11:54;2.40;;;2.30;;
6667;SDS011;3370;47.712;9.082;2022-07-06T02:14:20;2.30;;;2.17;;
6667;SDS011;3370;47.712;9.082;2022-07-06T02:16:46;2.33;;;2.10;;
6667;SDS011;3370;47.712;9.082;2022-07-06T02:19:11;4.50;;;2.33;;
6667;SDS011;3370;47.712;9.082;2022-07-06T02:21:38;8.70;;;2.20;;
6667;SDS011;3370;47.712;9.082;2022-07-06T02:24:03;5.97;;;2.23;;
6667;SDS011;3370;47.712;9.082;2022-07-06T02:26:30;5.20;;;2.47;;
6667;SDS011;3370;47.712;9.082;2022-07-06T02:28:55;6.17;;;2.33;;
6667;SDS011;3370;47.712;9.082;2022-07-06T02:31:21;6.87;;;2.33;;
6667;SDS011;3370;47.712;9.082;2022-07-06T02:33:47;3.47;;;2.03;;
6667;SDS011;3370;47.712;9.082;2022-07-06T02:36:13;3.60;;;2.70;;
6667;SDS011;3370;47.712;9.082;2022-07-06T02:38:39;2.77;;;2.13;;
6667;SDS011;3370;47.712;9.082;2022-07-06T02:41:05;3.80;;;2.53;;
6667;SDS011;3370;47.712;9.082;2022-07-06T02:43:30;3.07;;;2.67;;
6667;SDS011;3370;47.712;9.082;2022-07-06T02:45:56;3.50;;;1.90;;
6667;SDS011;3370;47.712;9.082;2022-07-06T02:48:22;2.33;;;2.10;;
6667;SDS011;3370;47.712;9.082;2022-07-06T02:50:48;8.93;;;2.60;;
6667;SDS011;3370;47.712;9.082;2022-07-06T02:53:14;2.73;;;1.90;;
6667;SDS011;3370;47.712;9.082;2022-07-06T02:55:42;2.03;;;1.83;;
6667;SDS011;3370;47.712;9.082;2022-07-06T02:58:08;6.00;;;2.20;;
6667;SDS011;3370;47.712;9.082;2022-07-06T03:00:34;2.33;;;2.20;;
6667;SDS011;3370;47.712;9.082;2022-07-06T03:03:00;10.13;;;2.67;;
6667;SDS011;3370;47.712;9.082;2022-07-06T03:05:26;3.03;;;2.83;;
6667;SDS011;3370;47.712;9.082;2022-07-06T03:07:51;3.03;;;2.10;;
6667;SDS011;3370;47.712;9.082;2022-07-06T03:10:17;3.97;;;2.40;;
6667;SDS011;3370;47.712;9.082;2022-07-06T03:12:43;2.63;;;2.33;;
6667;SDS011;3370;47.712;9.082;2022-07-06T03:15:09;2.00;;;1.90;;
6667;SDS011;3370;47.712;9.082;2022-07-06T03:17:35;3.07;;;2.33;;
6667;SDS011;3370;47.712;9.082;2022-07-06T03:20:03;3.00;;;2.47;;
6667;SDS011;3370;47.712;9.082;2022-07-06T03:22:32;2.37;;;2.20;;
6667;SDS011;3370;47.712;9.082;2022-07-06T03:24:58;2.47;;;2.30;;
6667;SDS011;3370;47.712;9.082;2022-07-06T03:27:23;2.43;;;2.23;;
6667;SDS011;3370;47.712;9.082;2022-07-06T03:29:49;2.60;;;2.07;;
6667;SDS011;3370;47.712;9.082;2022-07-06T03:32:15;4.30;;;2.93;;
6667;SDS011;3370;47.712;9.082;2022-07-06T03:34:41;2.90;;;2.03;;
6667;SDS011;3370;47.712;9.082;2022-07-06T03:37:07;3.23;;;2.37;;
6667;SDS011;3370;47.712;9.082;2022-07-06T03:39:33;2.60;;;2.40;;
6667;SDS011;3370;47.712;9.082;2022-07-06T03:41:59;4.43;;;2.37;;
6667;SDS011;3370;47.712;9.082;2022-07-06T03:44:25;2.43;;;2.30;;
6667;SDS011;3370;47.712;9.082;2022-07-06T03:46:50;4.23;;;2.60;;
6667;SDS011;3370;47.712;9.082;2022-07-06T03:49:19;2.23;;;2.10;;
6667;SDS011;3370;47.712;9.082;2022-07-06T03:51:45;2.77;;;2.57;;
6667;SDS011;3370;47.712;9.082;2022-07-06T03:54:11;2.20;;;2.00;;
6667;SDS011;3370;47.712;9.082;2022-07-06T03:56:36;3.67;;;2.40;;
6667;SDS011;3370;47.712;9.082;2022-07-06T03:59:03;2.53;;;2.33;;
6667;SDS011;3370;47.712;9.082;2022-07-06T04:01:29;2.60;;;2.40;;
6667;SDS011;3370;47.712;9.082;2022-07-06T04:03:56;2.20;;;2.10;;
6667;SDS011;3370;47.712;9.082;2022-07-06T04:06:22;4.50;;;2.60;;
6667;SDS011;3370;47.712;9.082;2022-07-06T04:08:48;3.03;;;2.20;;
6667;SDS011;3370;47.712;9.082;2022-07-06T04:11:14;4.33;;;3.10;;
6667;SDS011;3370;47.712;9.082;2022-07-06T04:13:40;2.70;;;2.40;;
6667;SDS011;3370;47.712;9.082;2022-07-06T04:16:07;2.80;;;2.60;;
6667;SDS011;3370;47.712;9.082;2022-07-06T04:18:33;2.33;;;2.13;;
6667;SDS011;3370;47.712;9.082;2022-07-06T04:20:59;2.70;;;2.50;;
6667;SDS011;3370;47.712;9.082;2022-07-06T04:23:25;5.70;;;2.40;;
6667;SDS011;3370;47.712;9.082;2022-07-06T04:25:51;2.20;;;2.10;;
6667;SDS011;3370;47.712;9.082;2022-07-06T04:28:17;2.87;;;2.67;;
6667;SDS011;3370;47.712;9.082;2022-07-06T04:30:43;7.70;;;2.90;;
6667;SDS011;3370;47.712;9.082;2022-07-06T04:33:08;5.73;;;2.50;;
6667;SDS011;3370;47.712;9.082;2022-07-06T04:35:34;5.73;;;3.20;;
6667;SDS011;3370;47.712;9.082;2022-07-06T04:38:00;2.70;;;2.50;;
6667;SDS011;3370;47.712;9.082;2022-07-06T04:40:26;3.70;;;2.97;;
6667;SDS011;3370;47.712;9.082;2022-07-06T04:42:52;6.90;;;3.00;;
6667;SDS011;3370;47.712;9.082;2022-07-06T04:45:18;4.83;;;2.93;;
6667;SDS011;3370;47.712;9.082;2022-07-06T04:47:44;5.40;;;2.40;;
6667;SDS011;3370;47.712;9.082;2022-07-06T04:50:10;7.23;;;2.70;;
6667;SDS011;3370;47.712;9.082;2022-07-06T04:52:37;3.27;;;2.70;;
6667;SDS011;3370;47.712;9.082;2022-07-06T04:55:03;3.03;;;2.57;;
6667;SDS011;3370;47.712;9.082;2022-07-06T04:57:33;2.87;;;2.67;;
6667;SDS011;3370;47.712;9.082;2022-07-06T05:00:00;7.20;;;2.93;;
6667;SDS011;3370;47.712;9.082;2022-07-06T05:02:26;2.60;;;2.40;;
6667;SDS011;3370;47.712;9.082;2022-07-06T05:04:52;5.40;;;2.80;;
6667;SDS011;3370;47.712;9.082;2022-07-06T05:07:18;3.17;;;2.87;;
6667;SDS011;3370;47.712;9.082;2022-07-06T05:09:44;4.73;;;3.20;;
6667;SDS011;3370;47.712;9.082;2022-07-06T05:12:10;3.43;;;2.43;;
6667;SDS011;3370;47.712;9.082;2022-07-06T05:14:36;3.13;;;2.93;;
6667;SDS011;3370;47.712;9.082;2022-07-06T05:17:02;3.03;;;2.83;;
6667;SDS011;3370;47.712;9.082;2022-07-06T05:19:28;4.03;;;2.40;;
6667;SDS011;3370;47.712;9.082;2022-07-06T05:21:54;4.87;;;3.00;;
6667;SDS011;3370;47.712;9.082;2022-07-06T05:24:20;3.10;;;2.90;;
6667;SDS011;3370;47.712;9.082;2022-07-06T05:26:46;3.13;;;2.73;;
6667;SDS011;3370;47.712;9.082;2022-07-06T05:29:12;5.73;;;3.00;;
6667;SDS011;3370;47.712;9.082;2022-07-06T05:31:38;5.30;;;3.10;;
6667;SDS011;3370;47.712;9.082;2022-07-06T05:34:04;3.00;;;2.70;;
6667;SDS011;3370;47.712;9.082;2022-07-06T05:36:30;3.90;;;3.20;;
6667;SDS011;3370;47.712;9.082;2022-07-06T05:38:56;3.30;;;3.10;;
6667;SDS011;3370;47.712;9.082;2022-07-06T05:41:21;4.77;;;3.30;;
6667;SDS011;3370;47.712;9.082;2022-07-06T05:43:47;8.50;;;2.80;;
6667;SDS011;3370;47.712;9.082;2022-07-06T05:46:13;2.83;;;2.73;;
6667;SDS011;3370;47.712;9.082;2022-07-06T05:48:39;3.73;;;3.43;;
6667;SDS011;3370;47.712;9.082;2022-07-06T05:51:23;4.63;;;3.07;;
6667;SDS011;3370;47.712;9.082;2022-07-06T05:53:50;6.87;;;3.47;;
6667;SDS011;3370;47.712;9.082;2022-07-06T05:56:16;3.97;;;2.87;;
6667;SDS011;3370;47.712;9.082;2022-07-06T05:58:42;5.30;;;3.23;;
6667;SDS011;3370;47.712;9.082;2022-07-06T06:01:08;5.10;;;2.87;;
6667;SDS011;3370;47.712;9.082;2022-07-06T06:03:35;3.07;;;2.80;;
6667;SDS011;3370;47.712;9.082;2022-07-06T06:06:01;4.37;;;3.40;;
6667;SDS011;3370;47.712;9.082;2022-07-06T06:08:27;5.27;;;2.50;;
6667;SDS011;3370;47.712;9.082;2022-07-06T06:10:53;4.33;;;2.47;;
6667;SDS011;3370;47.712;9.082;2022-07-06T06:13:19;5.60;;;2.80;;
6667;SDS011;3370;47.712;9.082;2022-07-06T06:15:45;4.10;;;3.27;;
6667;SDS011;3370;47.712;9.082;2022-07-06T06:18:11;4.07;;;2.67;;
6667;SDS011;3370;47.712;9.082;2022-07-06T06:20:37;2.90;;;2.67;;
6667;SDS011;3370;47.712;9.082;2022-07-06T06:23:03;4.33;;;2.63;;
6667;SDS011;3370;47.712;9.082;2022-07-06T06:28:01;4.67;;;3.53;;
6667;SDS011;3370;47.712;9.082;2022-07-06T06:30:30;3.40;;;3.10;;
6667;SDS011;3370;47.712;9.082;2022-07-06T06:35:47;6.50;;;3.57;;
6667;SDS011;3370;47.712;9.082;2022-07-06T06:38:18;3.17;;;2.97;;
6667;SDS011;3370;47.712;9.082;2022-07-06T06:40:46;11.17;;;3.23;;
6667;SDS011;3370;47.712;9.082;2022-07-06T06:43:11;3.60;;;2.97;;
6667;SDS011;3370;47.712;9.082;2022-07-06T06:45:38;2.60;;;2.47;;
6667;SDS011;3370;47.712;9.082;2022-07-06T06:48:04;3.43;;;3.10;;
6667;SDS011;3370;47.712;9.082;2022-07-06T06:50:30;11.37;;;3.00;;
6667;SDS011;3370;47.712;9.082;2022-07-06T06:52:56;4.40;;;2.60;;
6667;SDS011;3370;47.712;9.082;2022-07-06T06:55:22;3.73;;;3.10;;
6667;SDS011;3370;47.712;9.082;2022-07-06T06:57:48;3.13;;;2.80;;
6667;SDS011;3370;47.712;9.082;2022-07-06T07:00:14;2.97;;;2.37;;
6667;SDS011;3370;47.712;9.082;2022-07-06T07:02:40;3.20;;;2.77;;
6667;SDS011;3370;47.712;9.082;2022-07-06T07:05:06;5.50;;;2.80;;
6667;SDS011;3370;47.712;9.082;2022-07-06T07:07:33;3.07;;;2.87;;
6667;SDS011;3370;47.712;9.082;2022-07-06T07:10:00;3.00;;;2.80;;
6667;SDS011;3370;47.712;9.082;2022-07-06T07:12:25;3.80;;;2.83;;
6667;SDS011;3370;47.712;9.082;2022-07-06T07:14:51;5.10;;;3.30;;
6667;SDS011;3370;47.712;9.082;2022-07-06T07:17:17;3.13;;;2.83;;
6667;SDS011;3370;47.712;9.082;2022-07-06T07:19:43;6.40;;;2.70;;
6667;SDS011;3370;47.712;9.082;2022-07-06T07:22:09;4.07;;;2.57;;
6667;SDS011;3370;47.712;9.082;2022-07-06T07:24:35;3.60;;;2.77;;
6667;SDS011;3370;47.712;9.082;2022-07-06T07:27:01;2.83;;;2.60;;
6667;SDS011;3370;47.712;9.082;2022-07-06T07:29:27;5.37;;;2.60;;
6667;SDS011;3370;47.712;9.082;2022-07-06T07:31:53;3.53;;;2.83;;
6667;SDS011;3370;47.712;9.082;2022-07-06T07:34:18;3.50;;;2.73;;
6667;SDS011;3370;47.712;9.082;2022-07-06T07:36:44;3.07;;;2.80;;
6667;SDS011;3370;47.712;9.082;2022-07-06T07:39:10;3.33;;;2.77;;
6667;SDS011;3370;47.712;9.082;2022-07-06T07:41:36;4.10;;;3.10;;
6667;SDS011;3370;47.712;9.082;2022-07-06T07:44:02;4.80;;;3.33;;
6667;SDS011;3370;47.712;9.082;2022-07-06T07:46:28;4.13;;;3.10;;
6667;SDS011;3370;47.712;9.082;2022-07-06T07:48:54;8.80;;;3.30;;
6667;SDS011;3370;47.712;9.082;2022-07-06T07:51:20;3.33;;;3.13;;
6667;SDS011;3370;47.712;9.082;2022-07-06T07:53:45;6.23;;;3.57;;
6667;SDS011;3370;47.712;9.082;2022-07-06T07:56:11;4.43;;;3.30;;
6667;SDS011;3370;47.712;9.082;2022-07-06T07:58:37;3.53;;;3.23;;
6667;SDS011;3370;47.712;9.082;2022-07-06T08:01:03;5.60;;;3.53;;
6667;SDS011;3370;47.712;9.082;2022-07-06T08:03:29;3.47;;;3.17;;
6667;SDS011;3370;47.712;9.082;2022-07-06T08:05:56;4.97;;;3.17;;
6667;SDS011;3370;47.712;9.082;2022-07-06T08:08:23;7.30;;;3.27;;
6667;SDS011;3370;47.712;9.082;2022-07-06T08:10:49;2.77;;;2.53;;
6667;SDS011;3370;47.712;9.082;2022-07-06T08:13:15;9.23;;;3.60;;
6667;SDS011;3370;47.712;9.082;2022-07-06T08:15:41;5.00;;;3.30;;
6667;SDS011;3370;47.712;9.082;2022-07-06T08:18:07;3.10;;;2.90;;
6667;SDS011;3370;47.712;9.082;2022-07-06T08:20:34;2.93;;;2.73;;
6667;SDS011;3370;47.712;9.082;2022-07-06T08:23:01;7.23;;;3.40;;
6667;SDS011;3370;47.712;9.082;2022-07-06T08:25:28;4.20;;;3.07;;
6667;SDS011;3370;47.712;9.082;2022-07-06T08:27:54;4.23;;;3.13;;
6667;SDS011;3370;47.712;9.082;2022-07-06T08:30:20;3.70;;;3.40;;
6667;SDS011;3370;47.712;9.082;2022-07-06T08:32:46;7.30;;;3.57;;
6667;SDS011;3370;47.712;9.082;2022-07-06T08:35:12;7.83;;;3.73;;
6667;SDS011;3370;47.712;9.082;2022-07-06T08:37:37;4.00;;;3.60;;
6667;SDS011;3370;47.712;9.082;2022-07-06T08:40:04;3.40;;;3.10;;
6667;SDS011;3370;47.712;9.082;2022-07-06T08:42:32;6.50;;;3.27;;
6667;SDS011;3370;47.712;9.082;2022-07-06T08:45:00;3.73;;;3.47;;
6667;SDS011;3370;47.712;9.082;2022-07-06T08:47:28;3.57;;;3.27;;
6667;SDS011;3370;47.712;9.082;2022-07-06T08:49:55;3.20;;;2.90;;
6667;SDS011;3370;47.712;9.082;2022-07-06T08:52:22;3.50;;;3.23;;
6667;SDS011;3370;47.712;9.082;2022-07-06T08:54:49;4.53;;;3.40;;
6667;SDS011;3370;47.712;9.082;2022-07-06T08:57:15;4.83;;;3.47;;
6667;SDS011;3370;47.712;9.082;2022-07-06T08:59:42;4.33;;;2.90;;
6667;SDS011;3370;47.712;9.082;2022-07-06T09:02:11;3.73;;;3.43;;
6667;SDS011;3370;47.712;9.082;2022-07-06T09:04:38;6.30;;;3.60;;
6667;SDS011;3370;47.712;9.082;2022-07-06T09:07:07;3.67;;;3.37;;
6667;SDS011;3370;47.712;9.082;2022-07-06T09:09:33;3.47;;;3.20;;
6667;SDS011;3370;47.712;9.082;2022-07-06T09:12:01;6.60;;;3.30;;
6667;SDS011;3370;47.712;9.082;2022-07-06T09:14:28;5.70;;;3.43;;
6667;SDS011;3370;47.712;9.082;2022-07-06T09:17:05;6.50;;;3.57;;
6667;SDS011;3370;47.712;9.082;2022-07-06T09:19:32;4.73;;;3.20;;
6667;SDS011;3370;47.712;9.082;2022-07-06T09:22:00;8.83;;;3.70;;
6667;SDS011;3370;47.712;9.082;2022-07-06T09:24:26;3.77;;;3.47;;
6667;SDS011;3370;47.712;9.082;2022-07-06T09:26:55;3.60;;;3.30;;
6667;SDS011;3370;47.712;9.082;2022-07-06T09:29:26;3.40;;;3.07;;
6667;SDS011;3370;47.712;9.082;2022-07-06T09:32:01;3.37;;;3.07;;
6667;SDS011;3370;47.712;9.082;2022-07-06T09:34:40;4.00;;;3.13;;
6667;SDS011;3370;47.712;9.082;2022-07-06T09:37:07;7.80;;;3.17;;
6667;SDS011;3370;47.712;9.082;2022-07-06T09:39:33;11.93;;;3.20;;
6667;SDS011;3370;47.712;9.082;2022-07-06T09:41:59;4.30;;;2.90;;
6667;SDS011;3370;47.712;9.082;2022-07-06T09:47:01;3.13;;;2.90;;
6667;SDS011;3370;47.712;9.082;2022-07-06T09:49:30;6.50;;;3.60;;
6667;SDS011;3370;47.712;9.082;2022-07-06T09:51:57;4.77;;;3.03;;
6667;SDS011;3370;47.712;9.082;2022-07-06T09:54:25;5.50;;;2.43;;
6667;SDS011;3370;47.712;9.082;2022-07-06T09:56:52;4.27;;;2.80;;
6667;SDS011;3370;47.712;9.082;2022-07-06T09:59:23;4.30;;;2.57;;
6667;SDS011;3370;47.712;9.082;2022-07-06T10:01:52;2.30;;;2.13;;
6667;SDS011;3370;47.712;9.082;2022-07-06T10:04:21;2.50;;;2.40;;
6667;SDS011;3370;47.712;9.082;2022-07-06T10:06:48;2.90;;;2.57;;
6667;SDS011;3370;47.712;9.082;2022-07-06T10:09:15;5.03;;;3.07;;
6667;SDS011;3370;47.712;9.082;2022-07-06T10:11:50;2.83;;;2.63;;
6667;SDS011;3370;47.712;9.082;2022-07-06T10:14:28;4.00;;;2.40;;
6667;SDS011;3370;47.712;9.082;2022-07-06T10:16:57;4.83;;;2.83;;
6667;SDS011;3370;47.712;9.082;2022-07-06T10:19:26;4.73;;;2.53;;
6667;SDS011;3370;47.712;9.082;2022-07-06T10:21:54;6.40;;;2.70;;
6667;SDS011;3370;47.712;9.082;2022-07-06T10:24:23;3.13;;;2.50;;
6667;SDS011;3370;47.712;9.082;2022-07-06T10:26:51;3.30;;;2.27;;
6667;SDS011;3370;47.712;9.082;2022-07-06T10:29:19;2.70;;;2.50;;
6667;SDS011;3370;47.712;9.082;2022-07-06T10:31:46;2.90;;;2.70;;
6667;SDS011;3370;47.712;9.082;2022-07-06T10:34:14;2.60;;;2.40;;
6667;SDS011;3370;47.712;9.082;2022-07-06T10:36:44;2.80;;;2.60;;
6667;SDS011;3370;47.712;9.082;2022-07-06T10:39:16;5.30;;;3.13;;
6667;SDS011;3370;47.712;9.082;2022-07-06T10:45:15;4.63;;;2.80;;
6667;SDS011;3370;47.712;9.082;2022-07-06T10:48:35;5.90;;;3.13;;
6667;SDS011;3370;47.712;9.082;2022-07-06T10:50:53;2.93;;;2.40;;
6667;SDS011;3370;47.712;9.082;2022-07-06T10:53:24;3.03;;;2.70;;
6667;SDS011;3370;47.712;9.082;2022-07-06T10:55:57;3.77;;;3.00;;
6667;SDS011;3370;47.712;9.082;2022-07-06T11:01:13;4.97;;;2.70;;
6667;SDS011;3370;47.712;9.082;2022-07-06T11:06:18;5.30;;;3.00;;
6667;SDS011;3370;47.712;9.082;2022-07-06T11:14:00;3.00;;;2.73;;
6667;SDS011;3370;47.712;9.082;2022-07-06T11:16:38;3.00;;;2.77;;
6667;SDS011;3370;47.712;9.082;2022-07-06T11:19:28;5.13;;;2.50;;
6667;SDS011;3370;47.712;9.082;2022-07-06T11:22:07;10.20;;;2.80;;
6667;SDS011;3370;47.712;9.082;2022-07-06T11:24:40;4.13;;;2.60;;
6667;SDS011;3370;47.712;9.082;2022-07-06T11:27:07;6.13;;;2.63;;
6667;SDS011;3370;47.712;9.082;2022-07-06T11:29:34;8.23;;;2.83;;
6667;SDS011;3370;47.712;9.082;2022-07-06T11:32:04;2.50;;;2.30;;
6667;SDS011;3370;47.712;9.082;2022-07-06T11:34:35;2.30;;;2.10;;
6667;SDS011;3370;47.712;9.082;2022-07-06T11:37:10;3.00;;;2.80;;
6667;SDS011;3370;47.712;9.082;2022-07-06T11:39:38;3.57;;;2.40;;
6667;SDS011;3370;47.712;9.082;2022-07-06T11:42:12;3.67;;;2.70;;
6667;SDS011;3370;47.712;9.082;2022-07-06T11:44:40;6.03;;;2.10;;
6667;SDS011;3370;47.712;9.082;2022-07-06T11:47:07;3.23;;;2.53;;
6667;SDS011;3370;47.712;9.082;2022-07-06T11:49:35;4.17;;;2.70;;
6667;SDS011;3370;47.712;9.082;2022-07-06T11:52:06;6.37;;;2.70;;
6667;SDS011;3370;47.712;9.082;2022-07-06T11:54:41;3.30;;;2.43;;
6667;SDS011;3370;47.712;9.082;2022-07-06T11:57:09;2.80;;;2.33;;
6667;SDS011;3370;47.712;9.082;2022-07-06T11:59:38;8.17;;;2.77;;
6667;SDS011;3370;47.712;9.082;2022-07-06T12:02:11;2.90;;;2.70;;
6667;SDS011;3370;47.712;9.082;2022-07-06T12:04:44;5.23;;;2.60;;
6667;SDS011;3370;47.712;9.082;2022-07-06T12:07:11;3.80;;;2.43;;
6667;SDS011;3370;47.712;9.082;2022-07-06T12:09:42;3.53;;;3.20;;
6667;SDS011;3370;47.712;9.082;2022-07-06T12:12:10;2.67;;;2.40;;
6667;SDS011;3370;47.712;9.082;2022-07-06T12:14:37;5.30;;;2.50;;
6667;SDS011;3370;47.712;9.082;2022-07-06T12:17:11;2.43;;;2.23;;
6667;SDS011;3370;47.712;9.082;2022-07-06T12:19:40;4.93;;;3.20;;
6667;SDS011;3370;47.712;9.082;2022-07-06T12:22:07;9.50;;;2.70;;
6667;SDS011;3370;47.712;9.082;2022-07-06T12:24:41;3.67;;;2.97;;
6667;SDS011;3370;47.712;9.082;2022-07-06T12:27:14;4.13;;;2.63;;
6667;SDS011;3370;47.712;9.082;2022-07-06T12:29:42;3.17;;;2.83;;
6667;SDS011;3370;47.712;9.082;2022-07-06T12:32:29;3.13;;;2.80;;
6667;SDS011;3370;47.712;9.082;2022-07-06T12:37:33;4.03;;;2.60;;
6667;SDS011;3370;47.712;9.082;2022-07-06T12:39:59;3.60;;;2.47;;
6667;SDS011;3370;47.712;9.082;2022-07-06T12:42:25;2.50;;;2.30;;
6667;SDS011;3370;47.712;9.082;2022-07-06T12:44:53;3.10;;;2.60;;
6667;SDS011;3370;47.712;9.082;2022-07-06T12:47:19;7.73;;;3.03;;
6667;SDS011;3370;47.712;9.082;2022-07-06T12:49:49;5.57;;;2.90;;
6667;SDS011;3370;47.712;9.082;2022-07-06T12:52:31;6.27;;;2.63;;
6667;SDS011;3370;47.712;9.082;2022-07-06T12:54:59;4.20;;;2.27;;
6667;SDS011;3370;47.712;9.082;2022-07-06T12:57:26;7.27;;;2.73;;
6667;SDS011;3370;47.712;9.082;2022-07-06T13:02:22;2.83;;;2.60;;
6667;SDS011;3370;47.712;9.082;2022-07-06T13:04:56;5.40;;;3.07;;
6667;SDS011;3370;47.712;9.082;2022-07-06T13:07:30;2.60;;;2.40;;
6667;SDS011;3370;47.712;9.082;2022-07-06T13:10:00;2.97;;;2.67;;
6667;SDS011;3370;47.712;9.082;2022-07-06T13:12:31;5.53;;;2.77;;
6667;SDS011;3370;47.712;9.082;2022-07-06T13:14:57;2.40;;;2.27;;
6667;SDS011;3370;47.712;9.082;2022-07-06T13:17:23;5.60;;;2.43;;
6667;SDS011;3370;47.712;9.082;2022-07-06T13:19:50;4.10;;;2.80;;
6667;SDS011;3370;47.712;9.082;2022-07-06T13:22:15;5.90;;;3.23;;
6667;SDS011;3370;47.712;9.082;2022-07-06T13:24:41;4.43;;;2.40;;
6667;SDS011;3370;47.712;9.082;2022-07-06T13:27:07;4.63;;;2.60;;
6667;SDS011;3370;47.712;9.082;2022-07-06T13:29:34;3.00;;;2.70;;
6667;SDS011;3370;47.712;9.082;2022-07-06T13:32:00;7.20;;;2.40;;
6667;SDS011;3370;47.712;9.082;2022-07-06T13:34:28;2.73;;;2.43;;
6667;SDS011;3370;47.712;9.082;2022-07-06T13:36:53;3.20;;;2.90;;
6667;SDS011;3370;47.712;9.082;2022-07-06T13:39:19;5.20;;;2.87;;
6667;SDS011;3370;47.712;9.082;2022-07-06T13:41:45;2.60;;;2.40;;
6667;SDS011;3370;47.712;9.082;2022-07-06T13:44:12;4.13;;;2.73;;
6667;SDS011;3370;47.712;9.082;2022-07-06T13:46:38;4.70;;;2.43;;
6667;SDS011;3370;47.712;9.082;2022-07-06T13:49:05;2.53;;;2.33;;
6667;SDS011;3370;47.712;9.082;2022-07-06T13:51:32;6.47;;;2.57;;
6667;SDS011;3370;47.712;9.082;2022-07-06T13:53:58;3.50;;;2.40;;
6667;SDS011;3370;47.712;9.082;2022-07-06T13:56:25;2.70;;;2.50;;
6667;SDS011;3370;47.712;9.082;2022-07-06T13:58:51;8.80;;;2.83;;
6667;SDS011;3370;47.712;9.082;2022-07-06T14:01:17;2.60;;;2.50;;
6667;SDS011;3370;47.712;9.082;2022-07-06T14:03:44;3.33;;;2.57;;
6667;SDS011;3370;47.712;9.082;2022-07-06T14:06:10;5.03;;;2.83;;
6667;SDS011;3370;47.712;9.082;2022-07-06T14:08:36;2.50;;;2.30;;
6667;SDS011;3370;47.712;9.082;2022-07-06T14:11:03;4.53;;;2.27;;
6667;SDS011;3370;47.712;9.082;2022-07-06T14:13:31;6.03;;;2.27;;
6667;SDS011;3370;47.712;9.082;2022-07-06T14:15:57;5.80;;;2.30;;
6667;SDS011;3370;47.712;9.082;2022-07-06T14:18:23;7.33;;;2.50;;
6667;SDS011;3370;47.712;9.082;2022-07-06T14:20:50;2.53;;;2.33;;
6667;SDS011;3370;47.712;9.082;2022-07-06T14:23:18;4.00;;;2.40;;
6667;SDS011;3370;47.712;9.082;2022-07-06T14:25:46;4.10;;;2.50;;
6667;SDS011;3370;47.712;9.082;2022-07-06T14:28:13;2.57;;;2.33;;
6667;SDS011;3370;47.712;9.082;2022-07-06T14:30:41;6.50;;;2.80;;
6667;SDS011;3370;47.712;9.082;2022-07-06T14:33:09;7.23;;;2.70;;
6667;SDS011;3370;47.712;9.082;2022-07-06T14:35:38;4.27;;;2.40;;
6667;SDS011;3370;47.712;9.082;2022-07-06T14:38:10;6.07;;;2.30;;
6667;SDS011;3370;47.712;9.082;2022-07-06T14:40:36;4.90;;;2.70;;
6667;SDS011;3370;47.712;9.082;2022-07-06T14:43:03;3.43;;;2.60;;
6667;SDS011;3370;47.712;9.082;2022-07-06T14:45:29;4.80;;;2.87;;
6667;SDS011;3370;47.712;9.082;2022-07-06T14:47:55;6.90;;;2.40;;
6667;SDS011;3370;47.712;9.082;2022-07-06T14:50:22;2.80;;;2.00;;
6667;SDS011;3370;47.712;9.082;2022-07-06T14:52:51;3.53;;;2.80;;
6667;SDS011;3370;47.712;9.082;2022-07-06T14:55:18;7.03;;;3.23;;
6667;SDS011;3370;47.712;9.082;2022-07-06T14:57:45;3.67;;;2.33;;
6667;SDS011;3370;47.712;9.082;2022-07-06T15:00:12;5.10;;;2.77;;
6667;SDS011;3370;47.712;9.082;2022-07-06T15:02:40;2.93;;;2.73;;
6667;SDS011;3370;47.712;9.082;2022-07-06T15:05:07;4.60;;;2.63;;
6667;SDS011;3370;47.712;9.082;2022-07-06T15:07:34;7.40;;;2.80;;
6667;SDS011;3370;47.712;9.082;2022-07-06T15:10:00;3.50;;;2.60;;
6667;SDS011;3370;47.712;9.082;2022-07-06T15:12:27;3.13;;;2.83;;
6667;SDS011;3370;47.712;9.082;2022-07-06T15:14:53;5.63;;;2.67;;
6667;SDS011;3370;47.712;9.082;2022-07-06T15:17:19;5.23;;;2.30;;
6667;SDS011;3370;47.712;9.082;2022-07-06T15:19:45;4.87;;;2.53;;
6667;SDS011;3370;47.712;9.082;2022-07-06T15:22:11;3.10;;;2.80;;
6667;SDS011;3370;47.712;9.082;2022-07-06T15:24:37;3.30;;;2.77;;
6667;SDS011;3370;47.712;9.082;2022-07-06T15:27:04;8.80;;;3.03;;
6667;SDS011;3370;47.712;9.082;2022-07-06T15:29:31;4.20;;;2.67;;
6667;SDS011;3370;47.712;9.082;2022-07-06T15:31:58;4.33;;;2.80;;
6667;SDS011;3370;47.712;9.082;2022-07-06T15:34:25;7.23;;;2.80;;
6667;SDS011;3370;47.712;9.082;2022-07-06T15:36:51;5.20;;;2.30;;
6667;SDS011;3370;47.712;9.082;2022-07-06T15:39:17;3.07;;;2.20;;
6667;SDS011;3370;47.712;9.082;2022-07-06T15:41:43;3.90;;;2.90;;
6667;SDS011;3370;47.712;9.082;2022-07-06T15:44:09;4.77;;;2.60;;